Time;durP1;ratioP1;P1;durP2;ratioP2;P2;SDS_P1;SDS_P2;PMS_P1;PMS_P2;Temp;Humidity;BMP_temperature;BMP_pressure;BME280_temperature;BME280_humidity;BME280_pressure;Samples;Min_cycle;Max_cycle;Signal;HPM_P1;HPM_P2
2023/10/16 00:02:22;;;;;;;;;1.75;1.00;;;;;11.97;45.45;101852.25;6186268;23;45333;-73
2023/10/16 00:04:48;;;;;;;;;1.75;1.00;;;;;11.99;45.51;101863.78;6185389;23;45204;-73
2023/10/16 00:07:21;;;;;;;;;1.00;1.00;;;;;11.90;45.43;101850.59;6186255;23;45595;-73
2023/10/16 00:09:49;;;;;;;;;2.00;2.00;;;;;11.81;45.26;101849.84;6186028;23;45198;-72
2023/10/16 00:12:19;;;;;;;;;0.00;0.00;;;;;11.77;45.48;101845.47;6186415;23;45296;-73
2023/10/16 00:14:45;;;;;;;;;0.75;0.75;;;;;11.81;45.57;101856.97;6184894;23;45445;-73
2023/10/16 00:17:13;;;;;;;;;1.00;0.00;;;;;11.79;45.69;101848.97;6158122;23;46442;-73
2023/10/16 00:19:38;;;;;;;;;1.00;1.00;;;;;11.51;45.62;101800.53;6185438;23;45335;-73
2023/10/16 00:22:18;;;;;;;;;3.50;0.25;;;;;11.74;45.83;101856.22;6186433;23;45335;-73
2023/10/16 00:24:47;;;;;;;;;1.00;1.00;;;;;11.71;46.02;101847.38;6186102;23;45344;-73
2023/10/16 00:27:15;;;;;;;;;0.00;0.00;;;;;11.68;46.35;101851.00;6185870;23;45214;-73
2023/10/16 00:29:45;;;;;;;;;0.50;0.50;;;;;11.67;46.53;101849.22;6185554;23;45389;-73
2023/10/16 00:32:11;;;;;;;;;2.00;1.00;;;;;11.62;45.89;101840.41;6184193;23;45214;-73
2023/10/16 00:34:38;;;;;;;;;0.75;0.75;;;;;11.63;46.56;101856.44;6158805;23;45353;-73
2023/10/16 00:37:04;;;;;;;;;1.75;1.75;;;;;11.52;46.60;101828.13;6186168;23;45445;-73
2023/10/16 00:39:30;;;;;;;;;0.75;0.75;;;;;11.58;46.79;101841.41;6159163;23;45621;-73
2023/10/16 00:41:57;;;;;;;;;1.00;1.00;;;;;11.53;47.45;101828.13;6185960;23;45403;-73
2023/10/16 00:44:33;;;;;;;;;2.25;1.00;;;;;11.48;47.76;101821.97;6184653;23;45452;-73
2023/10/16 00:47:01;;;;;;;;;2.75;1.00;;;;;11.54;47.58;101827.19;6158796;23;47240;-73
2023/10/16 00:49:28;;;;;;;;;1.00;1.00;;;;;11.55;47.69;101828.09;6185750;23;45256;-73
2023/10/16 00:51:54;;;;;;;;;1.75;1.00;;;;;11.49;47.88;101829.06;6185948;23;45475;-73
2023/10/16 00:54:28;;;;;;;;;2.50;1.00;;;;;11.40;48.18;101818.56;6185463;23;45415;-73
2023/10/16 00:56:57;;;;;;;;;3.50;1.50;;;;;11.39;47.61;101827.47;6185438;23;46178;-73
2023/10/16 00:59:23;;;;;;;;;2.25;1.75;;;;;11.37;47.80;101830.19;6185159;23;45285;-73
2023/10/16 01:01:52;;;;;;;;;0.50;0.50;;;;;11.35;48.02;101831.13;6185788;23;45226;-73
2023/10/16 01:04:19;;;;;;;;;1.00;1.00;;;;;11.16;47.96;101790.47;6184797;23;45254;-73
2023/10/16 01:06:45;;;;;;;;;0.75;0.75;;;;;11.25;48.20;101817.03;6185199;23;46422;-73
2023/10/16 01:09:23;;;;;;;;;1.50;1.00;;;;;11.28;48.35;101814.31;6185520;23;45420;-73
2023/10/16 01:11:52;;;;;;;;;0.25;0.00;;;;;11.22;48.89;101801.94;6186100;23;45245;-73
2023/10/16 01:14:19;;;;;;;;;1.00;1.00;;;;;11.21;48.75;101813.56;6184553;23;45434;-73
2023/10/16 01:16:44;;;;;;;;;1.25;0.75;;;;;11.25;49.02;101817.91;6185469;23;46208;-73
2023/10/16 01:19:10;;;;;;;;;1.00;1.00;;;;;11.17;49.04;101800.25;6185455;23;45965;-72
2023/10/16 01:21:35;;;;;;;;;1.25;1.00;;;;;11.19;48.71;101803.78;6186177;23;45400;-73
2023/10/16 01:24:12;;;;;;;;;1.00;1.00;;;;;11.29;49.17;101816.06;6185333;23;45311;-73
2023/10/16 01:26:41;;;;;;;;;1.00;1.00;;;;;11.26;48.95;101814.34;6185084;23;47114;-73
2023/10/16 01:29:08;;;;;;;;;2.00;1.00;;;;;11.21;49.09;101801.97;6185296;23;45212;-73
2023/10/16 01:31:36;;;;;;;;;2.50;2.00;;;;;11.24;49.74;101808.16;6185471;23;45413;-73
2023/10/16 01:34:02;;;;;;;;;0.75;0.00;;;;;11.22;49.40;101801.06;6185411;23;45399;-73
2023/10/16 01:36:30;;;;;;;;;2.00;2.00;;;;;11.22;49.39;101788.56;6185763;23;45301;-73
2023/10/16 01:38:58;;;;;;;;;2.00;1.00;;;;;11.28;49.69;101800.97;6185652;23;45555;-72
2023/10/16 01:41:24;;;;;;;;;1.25;0.75;;;;;11.23;49.61;101773.44;6186061;23;45308;-73
2023/10/16 01:43:52;;;;;;;;;1.75;1.00;;;;;11.37;50.33;101803.44;6184999;23;45295;-72
2023/10/16 01:46:18;;;;;;;;;1.00;1.00;;;;;11.32;50.40;101779.47;6185426;23;46309;-73
2023/10/16 01:48:46;;;;;;;;;0.00;0.00;;;;;11.35;50.29;101773.19;6185443;23;45558;-73
2023/10/16 01:51:18;;;;;;;;;1.00;1.00;;;;;11.40;49.93;101781.13;6185112;23;45298;-73
2023/10/16 01:53:44;;;;;;;;;1.25;1.25;;;;;11.46;50.33;101783.66;6185443;23;45676;-73
2023/10/16 01:56:12;;;;;;;;;1.00;1.00;;;;;11.44;50.35;101781.06;6185880;23;45311;-73
2023/10/16 01:58:41;;;;;;;;;4.00;2.00;;;;;11.49;50.51;101786.28;6185242;23;45732;-72
2023/10/16 02:01:08;;;;;;;;;1.75;1.25;;;;;11.41;50.56;101778.44;6186037;23;45378;-73
2023/10/16 02:03:34;;;;;;;;;0.25;0.25;;;;;11.29;50.41;101759.94;6185755;23;45467;-73
2023/10/16 02:05:59;;;;;;;;;1.00;1.00;;;;;11.41;50.58;101766.84;6158192;23;47245;-73
2023/10/16 02:08:25;;;;;;;;;1.00;1.00;;;;;11.37;50.75;101758.00;6185711;23;45223;-72
2023/10/16 02:10:50;;;;;;;;;3.00;2.00;;;;;11.37;50.62;101766.03;6185745;23;45710;-73
2023/10/16 02:13:16;;;;;;;;;1.25;1.25;;;;;11.26;50.70;101751.97;6185216;23;45273;-73
2023/10/16 02:15:42;;;;;;;;;0.00;0.00;;;;;11.24;51.29;101741.34;6157116;23;45478;-73
2023/10/16 02:18:18;;;;;;;;;1.50;1.50;;;;;11.32;50.96;101757.22;6184330;23;45373;-73
2023/10/16 02:20:46;;;;;;;;;2.00;2.00;;;;;11.17;51.11;101730.78;6185403;23;45344;-73
2023/10/16 02:23:12;;;;;;;;;1.25;1.25;;;;;11.33;51.47;101758.97;6185205;23;45296;-73
2023/10/16 02:25:37;;;;;;;;;2.00;2.00;;;;;11.34;51.54;101749.16;6158264;23;46008;-72
2023/10/16 02:28:13;;;;;;;;;3.00;2.00;;;;;11.32;51.26;101752.72;6185663;23;45229;-73
2023/10/16 02:30:39;;;;;;;;;2.75;2.00;;;;;11.33;51.48;101745.63;6185532;23;45328;-73
2023/10/16 02:33:13;;;;;;;;;2.25;1.00;;;;;11.35;51.35;101738.44;6184665;23;45441;-73
2023/10/16 02:35:42;;;;;;;;;4.00;1.25;;;;;11.28;51.50;101728.78;6183911;23;45735;-73
2023/10/16 02:38:12;;;;;;;;;2.00;1.50;;;;;11.32;51.57;101731.34;6158746;23;45235;-73
2023/10/16 02:40:39;;;;;;;;;2.50;1.00;;;;;11.39;51.78;101747.28;6185020;23;45312;-73
2023/10/16 02:43:13;;;;;;;;;2.25;1.25;;;;;11.29;51.60;101715.41;6184829;23;45285;-73
2023/10/16 02:45:42;;;;;;;;;2.00;2.00;;;;;11.42;51.75;101737.41;6157428;23;46959;-73
2023/10/16 02:48:09;;;;;;;;;2.50;2.50;;;;;11.28;51.63;101729.66;6185079;23;45426;-73
2023/10/16 02:50:35;;;;;;;;;2.00;1.00;;;;;11.33;51.67;101740.28;6185037;23;45257;-73
2023/10/16 02:53:01;;;;;;;;;1.00;1.00;;;;;11.34;52.31;101738.47;6185338;23;45332;-73
2023/10/16 02:55:27;;;;;;;;;2.00;2.00;;;;;11.25;51.73;101718.16;6183305;23;46510;-73
2023/10/16 02:57:52;;;;;;;;;4.00;1.00;;;;;11.36;52.14;101736.63;6185052;23;45236;-73
2023/10/16 03:00:25;;;;;;;;;0.00;0.00;;;;;11.30;52.25;101726.97;6158748;23;45313;-73
2023/10/16 03:02:51;;;;;;;;;2.00;2.00;;;;;11.24;52.00;101703.00;6183548;23;46179;-73
2023/10/16 03:05:24;;;;;;;;;1.75;1.75;;;;;11.32;51.84;101731.34;6184345;23;45407;-73
2023/10/16 03:07:52;;;;;;;;;4.25;2.25;;;;;11.31;52.06;101729.59;6185341;23;45471;-73
2023/10/16 03:10:20;;;;;;;;;1.00;1.00;;;;;11.27;52.27;101735.03;6184966;23;45336;-73
2023/10/16 03:12:49;;;;;;;;;1.00;1.00;;;;;11.16;52.03;101718.31;6184916;23;45214;-73
2023/10/16 03:15:20;;;;;;;;;3.00;3.00;;;;;11.23;52.21;101733.34;6183420;23;46236;-73
2023/10/16 03:17:51;;;;;;;;;1.25;1.25;;;;;11.12;52.91;101712.16;6184234;23;45265;-73
2023/10/16 03:20:20;;;;;;;;;1.75;1.75;;;;;11.19;52.75;101726.28;6184601;23;45330;-73
2023/10/16 03:22:47;;;;;;;;;3.00;1.00;;;;;11.22;52.56;101719.09;6184824;23;45241;-75
2023/10/16 03:25:50;;;;;;;;;1.00;1.00;;;;;11.16;52.82;101721.91;6184525;23;45289;-75
2023/10/16 03:28:11;;;;;;;;;2.75;1.75;;;;;11.09;52.52;101698.84;6185490;23;45414;-75
2023/10/16 03:30:37;;;;;;;;;2.75;1.25;;;;;11.10;52.57;101714.00;6185674;23;45264;-74
2023/10/16 03:33:03;;;;;;;;;1.50;1.50;;;;;11.16;53.12;101719.22;6186176;23;45425;-74
2023/10/16 03:35:32;;;;;;;;;2.00;2.00;;;;;11.06;53.24;101701.56;6186308;23;45497;-75
2023/10/16 03:37:58;;;;;;;;;2.00;2.00;;;;;11.07;53.37;101706.03;6186123;23;45532;-75
2023/10/16 03:40:24;;;;;;;;;3.00;2.00;;;;;11.05;53.05;101702.50;6209915;22;45549;-73
2023/10/16 03:42:54;;;;;;;;;2.00;2.00;;;;;11.08;53.11;101697.09;6186127;23;45538;-73
2023/10/16 03:45:22;;;;;;;;;1.00;1.00;;;;;11.15;52.81;101706.75;6185014;23;45792;-72
2023/10/16 03:47:52;;;;;;;;;3.00;2.50;;;;;11.12;53.27;101702.34;6186610;23;45551;-72
2023/10/16 03:50:39;;;;;;;;;2.75;2.75;;;;;11.06;53.20;101696.22;6185898;23;45380;-72
2023/10/16 03:53:07;;;;;;;;;3.50;2.75;;;;;11.08;53.57;101702.44;6184877;23;45245;-73
2023/10/16 03:55:48;;;;;;;;;1.75;1.75;;;;;11.04;53.33;101703.41;6185618;23;46079;-73
2023/10/16 03:58:14;;;;;;;;;4.00;3.25;;;;;10.99;53.16;101700.81;6185586;23;45605;-73
2023/10/16 04:00:58;;;;;;;;;2.00;2.00;;;;;11.04;54.13;101701.63;6186101;23;45283;-73
2023/10/16 04:03:26;;;;;;;;;3.00;2.00;;;;;10.86;53.42;101699.28;6186500;23;45194;-73
2023/10/16 04:05:53;;;;;;;;;2.25;1.75;;;;;10.92;53.41;101715.19;6185828;23;45320;-72
2023/10/16 04:08:23;;;;;;;;;2.00;2.00;;;;;10.92;54.17;101715.19;6186232;23;45469;-72
2023/10/16 04:10:49;;;;;;;;;2.00;2.00;;;;;10.87;54.00;101720.63;6183985;23;45357;-73
2023/10/16 04:13:25;;;;;;;;;4.25;3.00;;;;;10.85;54.24;101724.25;6185355;23;45288;-73
2023/10/16 04:18:33;;;;;;;;;3.00;3.00;;;;;10.75;54.45;101707.50;6185438;23;45593;-72
2023/10/16 04:31:44;;;;;;;;;2.00;2.00;;;;;10.86;55.04;101712.63;6160809;23;45342;-73
2023/10/16 04:45:23;;;;;;;;;2.00;1.25;;;;;10.79;55.07;101692.28;6185332;23;45254;-72
2023/10/16 04:50:29;;;;;;;;;2.25;2.25;;;;;10.73;55.00;101678.16;6185176;23;45686;-72
2023/10/16 05:00:57;;;;;;;;;3.75;3.75;;;;;10.75;55.31;101662.97;6181879;23;45440;-73
2023/10/16 05:06:14;;;;;;;;;2.75;2.25;;;;;10.76;55.01;101666.53;6185183;23;45246;-72
2023/10/16 05:11:27;;;;;;;;;2.75;2.75;;;;;10.64;55.21;101661.41;6185550;23;45569;-73
2023/10/16 05:13:55;;;;;;;;;3.00;1.00;;;;;10.59;55.12;101664.16;6185757;23;45365;-72
2023/10/16 05:16:38;;;;;;;;;1.00;1.00;;;;;10.54;55.53;101674.03;6185603;23;45520;-72
2023/10/16 05:19:04;;;;;;;;;2.00;2.00;;;;;10.44;55.87;101659.09;6160895;23;45984;-72
2023/10/16 06:16:20;;;;;;;;;3.00;2.00;;;;;10.42;56.62;101669.78;6185344;23;45620;-72
2023/10/16 06:18:46;;;;;;;;;2.00;2.00;;;;;10.43;56.63;101666.22;6158359;23;45583;-72
2023/10/16 06:21:14;;;;;;;;;3.25;3.00;;;;;10.31;56.30;101645.06;6184367;23;45427;-72
2023/10/16 06:23:42;;;;;;;;;2.00;2.00;;;;;10.38;56.43;101668.09;6183800;23;45955;-72
2023/10/16 06:26:09;;;;;;;;;3.00;2.00;;;;;10.23;56.17;101638.97;6185386;23;45261;-72
2023/10/16 06:28:35;;;;;;;;;3.75;2.00;;;;;10.25;56.41;101645.16;6184812;23;45300;-72
2023/10/16 06:31:00;;;;;;;;;4.00;2.00;;;;;10.27;56.87;101659.34;6184849;23;45395;-72
2023/10/16 06:33:28;;;;;;;;;3.25;1.25;;;;;10.16;56.72;101643.53;6184574;23;46451;-71
2023/10/16 06:35:54;;;;;;;;;2.50;2.00;;;;;10.20;56.92;101651.41;6184436;23;45277;-72
2023/10/16 06:38:21;;;;;;;;;3.75;2.75;;;;;10.23;57.27;101660.31;6184106;23;45367;-72
2023/10/16 06:40:47;;;;;;;;;3.00;3.00;;;;;10.19;56.63;101660.34;6184415;23;45237;-72
2023/10/16 06:43:16;;;;;;;;;3.00;3.00;;;;;10.13;57.01;101644.44;6184821;23;46061;-72
2023/10/16 06:45:49;;;;;;;;;2.75;2.75;;;;;10.24;57.45;101662.06;6184441;23;45399;-72
2023/10/16 06:48:15;;;;;;;;;4.00;2.00;;;;;10.15;57.40;101645.28;6183932;23;45398;-72
2023/10/16 06:50:53;;;;;;;;;3.00;2.75;;;;;10.22;57.27;101656.75;6183036;23;45436;-73
2023/10/16 06:53:19;;;;;;;;;1.00;1.00;;;;;10.23;56.81;101661.19;6183381;23;47066;-70
2023/10/16 06:55:45;;;;;;;;;4.00;2.00;;;;;10.16;57.25;101659.53;6185428;23;45271;-70
2023/10/16 06:58:12;;;;;;;;;4.00;4.00;;;;;10.23;57.28;101666.53;6184983;23;45264;-71
2023/10/16 07:00:38;;;;;;;;;2.00;2.00;;;;;10.18;57.22;101653.25;6179041;23;45427;-70
2023/10/16 07:03:09;;;;;;;;;1.75;1.75;;;;;10.20;57.31;101642.53;6177453;23;46067;-70
2023/10/16 07:05:44;;;;;;;;;4.75;3.50;;;;;10.29;57.18;101655.75;6181977;23;45586;-70
2023/10/16 07:08:16;;;;;;;;;2.25;2.25;;;;;10.23;57.21;101637.16;6182241;23;45786;-73
2023/10/16 07:10:49;;;;;;;;;2.00;2.00;;;;;10.27;57.46;101638.84;6182471;23;45703;-70
2023/10/16 07:13:26;;;;;;;;;3.75;3.00;;;;;10.36;57.20;101651.22;6183273;23;46092;-70
2023/10/16 07:15:56;;;;;;;;;3.00;2.75;;;;;10.42;57.05;101653.78;6184160;23;45331;-69
2023/10/16 07:18:24;;;;;;;;;1.00;1.00;;;;;10.44;56.88;101654.66;6156967;23;45525;-70
2023/10/16 07:23:34;;;;;;;;;2.50;1.00;;;;;10.40;57.16;101649.38;6183266;23;45278;-69
2023/10/16 07:26:00;;;;;;;;;3.25;2.50;;;;;10.38;56.84;101650.28;6183788;23;45336;-69
2023/10/16 07:28:27;;;;;;;;;3.00;3.00;;;;;10.37;56.99;101656.53;6184009;23;45686;-70
2023/10/16 07:30:56;;;;;;;;;2.00;2.00;;;;;10.32;57.01;101655.75;6183923;23;45648;-69
2023/10/16 07:33:22;;;;;;;;;4.75;3.75;;;;;10.37;57.48;101661.88;6156649;23;48310;-74
2023/10/16 07:35:49;;;;;;;;;2.00;2.00;;;;;10.34;57.22;101664.59;6184316;23;45327;-67
2023/10/16 07:38:19;;;;;;;;;3.75;2.00;;;;;10.35;57.65;101668.13;6184600;23;45399;-69
2023/10/16 07:40:51;;;;;;;;;3.00;1.00;;;;;10.37;57.11;101663.66;6184359;23;45472;-69
2023/10/16 07:43:26;;;;;;;;;2.00;2.00;;;;;10.35;57.11;101661.00;6183799;23;45357;-69
2023/10/16 07:48:40;;;;;;;;;5.00;3.00;;;;;10.33;57.67;101668.16;6180309;23;45381;-69
2023/10/16 07:51:07;;;;;;;;;2.25;2.25;;;;;10.33;56.91;101668.16;6183610;23;45426;-69
2023/10/16 07:53:36;;;;;;;;;3.75;2.25;;;;;10.24;57.17;101648.72;6182371;23;46280;-69
2023/10/16 07:56:02;;;;;;;;;3.75;3.00;;;;;10.34;57.18;101666.34;6183009;23;45515;-69
2023/10/16 07:58:34;;;;;;;;;5.00;3.00;;;;;10.34;57.83;101653.91;6183657;23;45719;-69
2023/10/16 08:03:36;;;;;;;;;1.25;1.25;;;;;10.45;57.61;101663.53;6183451;23;45813;-69
2023/10/16 08:06:05;;;;;;;;;5.00;4.00;;;;;10.37;56.94;101643.19;6183378;23;45318;-70
2023/10/16 08:08:36;;;;;;;;;2.75;2.75;;;;;10.47;57.35;101659.91;6183723;23;45253;-69
2023/10/16 08:11:12;;;;;;;;;2.75;2.75;;;;;10.42;56.92;101655.56;6182289;23;45708;-69
2023/10/16 08:13:48;;;;;;;;;2.50;2.00;;;;;10.32;57.06;101645.06;6181626;23;45373;-67
2023/10/16 08:16:18;;;;;;;;;3.25;3.00;;;;;10.34;57.21;101653.91;6183908;23;45550;-68
2023/10/16 08:18:52;;;;;;;;;4.00;3.00;;;;;10.25;57.77;101638.00;6155395;23;45361;-65
2023/10/16 08:21:25;;;;;;;;;3.00;3.00;;;;;10.17;57.62;101627.50;6156442;23;45302;-66
2023/10/16 08:23:55;;;;;;;;;4.25;3.00;;;;;10.29;57.63;101638.84;6156437;23;46221;-67
2023/10/16 08:26:30;;;;;;;;;2.75;2.00;;;;;10.10;57.64;101617.81;6184089;23;45643;-62
2023/10/16 08:29:11;;;;;;;;;4.00;3.00;;;;;10.26;57.29;101637.13;6183409;23;45344;-62
2023/10/16 08:31:41;;;;;;;;;3.75;3.75;;;;;10.33;57.32;101641.47;6183150;23;45623;-63
2023/10/16 08:34:06;;;;;;;;;2.25;2.00;;;;;10.31;57.61;101637.91;6182280;23;46228;-63
2023/10/16 08:36:31;;;;;;;;;1.75;1.75;;;;;10.34;57.23;101624.56;6184545;23;45388;-62
2023/10/16 08:38:57;;;;;;;;;3.00;3.00;;;;;10.29;57.71;101623.72;6184787;23;45351;-63
2023/10/16 08:41:42;;;;;;;;;2.00;2.00;;;;;10.29;57.66;101634.41;6157682;23;45737;-63
2023/10/16 08:44:08;;;;;;;;;3.75;3.00;;;;;10.33;57.81;101637.94;6182963;23;45848;-63
2023/10/16 08:46:44;;;;;;;;;3.25;3.25;;;;;10.31;57.56;101643.25;6207894;22;45348;-63
2023/10/16 08:49:10;;;;;;;;;3.50;3.00;;;;;10.31;58.64;101634.38;6184415;23;45285;-62
2023/10/16 08:51:36;;;;;;;;;3.25;3.25;;;;;10.28;58.16;101627.28;6183229;23;45623;-63
2023/10/16 08:54:03;;;;;;;;;3.00;3.00;;;;;10.36;57.87;101619.19;6183042;23;45748;-63
2023/10/16 08:56:29;;;;;;;;;3.75;3.00;;;;;10.38;58.30;101620.03;6183820;23;45435;-63
2023/10/16 08:58:55;;;;;;;;;4.50;4.00;;;;;10.40;58.34;101615.56;6180987;23;45438;-63
2023/10/16 09:01:26;;;;;;;;;3.00;3.00;;;;;10.42;57.79;101621.75;6182311;23;45264;-63
2023/10/16 09:04:06;;;;;;;;;2.50;2.50;;;;;10.32;58.37;101594.34;6182582;23;45566;-63
2023/10/16 09:06:37;;;;;;;;;3.50;3.50;;;;;10.43;58.42;101604.81;6182839;23;45376;-63
2023/10/16 09:09:12;;;;;;;;;5.00;4.00;;;;;10.48;58.88;101604.75;6183092;23;45292;-62
2023/10/16 09:11:39;;;;;;;;;8.75;4.75;;;;;10.50;58.39;101601.13;6183063;23;45428;-63
2023/10/16 09:14:07;;;;;;;;;5.00;3.75;;;;;10.62;58.26;101605.34;6182753;23;46079;-63
2023/10/16 09:16:34;;;;;;;;;1.00;1.00;;;;;10.56;58.45;101587.69;6183758;23;45345;-63
2023/10/16 09:19:01;;;;;;;;;2.00;2.00;;;;;10.68;58.42;101599.91;6183755;23;45559;-62
2023/10/16 09:21:30;;;;;;;;;4.50;3.00;;;;;10.70;57.82;101598.09;6183377;23;45579;-63
2023/10/16 09:23:59;;;;;;;;;3.25;3.25;;;;;10.72;58.18;101596.25;6182953;23;45399;-63
2023/10/16 09:26:28;;;;;;;;;3.00;3.00;;;;;10.79;58.80;101607.69;6156143;23;45987;-62
2023/10/16 09:28:55;;;;;;;;;5.00;5.00;;;;;10.78;57.89;101587.28;6155221;23;45389;-63
2023/10/16 09:31:21;;;;;;;;;3.00;3.00;;;;;10.86;58.01;101593.34;6182369;23;45401;-62
2023/10/16 09:33:49;;;;;;;;;4.00;4.00;;;;;10.88;58.20;101583.50;6182059;23;45444;-63
2023/10/16 09:36:23;;;;;;;;;4.50;3.50;;;;;10.87;57.51;101579.06;6182304;23;45214;-63
2023/10/16 09:38:52;;;;;;;;;3.50;3.50;;;;;10.85;58.11;101564.84;6182270;23;45443;-63
2023/10/16 09:41:42;;;;;;;;;3.75;2.75;;;;;10.96;57.87;101563.75;6183548;23;45413;-62
2023/10/16 09:44:22;;;;;;;;;3.00;3.00;;;;;10.92;58.23;101560.28;6181669;23;46109;-63
2023/10/16 09:49:15;;;;;;;;;5.00;4.25;;;;;11.05;58.21;101558.22;6181475;23;45427;-63
2023/10/16 09:51:44;;;;;;;;;5.00;3.75;;;;;11.13;58.08;101548.25;6181421;23;45479;-63
2023/10/16 09:54:11;;;;;;;;;5.50;2.25;;;;;11.29;57.53;101564.81;6182683;23;45602;-63
2023/10/16 09:56:38;;;;;;;;;3.00;3.00;;;;;11.31;57.76;101565.69;6204430;22;45329;-63
2023/10/16 09:59:22;;;;;;;;;2.00;2.00;;;;;11.22;57.77;101552.50;6182455;23;45414;-63
2023/10/16 10:01:51;;;;;;;;;4.50;3.25;;;;;11.23;57.29;101551.63;6183475;23;45555;-63
2023/10/16 10:04:24;;;;;;;;;3.00;3.00;;;;;11.28;57.84;101555.94;6182594;23;46933;-63
2023/10/16 10:06:58;;;;;;;;;0.00;0.00;;;;;11.12;57.42;101519.75;6206006;22;45713;-63
2023/10/16 10:09:44;;;;;;;;;3.00;3.00;;;;;11.23;57.56;101536.44;6184133;23;45461;-62
2023/10/16 10:12:28;;;;;;;;;2.50;2.00;;;;;11.29;57.56;101546.09;6183201;23;45440;-63
2023/10/16 10:15:14;;;;;;;;;4.75;2.00;;;;;11.22;57.19;101528.47;6182550;23;46768;-63
2023/10/16 10:17:42;;;;;;;;;2.75;2.75;;;;;11.28;57.36;101533.69;6183045;23;45667;-63
2023/10/16 10:20:09;;;;;;;;;4.25;3.75;;;;;11.27;57.58;101522.09;6182981;23;45517;-63
2023/10/16 10:22:36;;;;;;;;;3.25;2.75;;;;;11.25;57.37;101515.03;6156421;23;45815;-63
2023/10/16 10:25:09;;;;;;;;;4.75;4.00;;;;;11.41;57.29;101526.22;6206120;22;47449;-64
2023/10/16 10:27:41;;;;;;;;;3.00;3.00;;;;;11.41;57.12;101524.47;6182927;23;45404;-63
2023/10/16 10:30:10;;;;;;;;;3.00;3.00;;;;;11.41;57.02;101515.53;6183823;23;45383;-64
2023/10/16 10:32:37;;;;;;;;;2.75;2.00;;;;;11.28;57.18;101491.78;6206434;22;45364;-64
2023/10/16 10:35:28;;;;;;;;;3.75;3.00;;;;;11.41;56.78;101508.44;6205742;22;47260;-64
2023/10/16 10:38:07;;;;;;;;;3.75;3.75;;;;;11.37;57.14;101498.69;6183398;23;45663;-67
2023/10/16 10:40:36;;;;;;;;;4.00;3.00;;;;;11.35;57.09;101491.66;6182171;23;45391;-66
2023/10/16 10:43:05;;;;;;;;;1.50;1.50;;;;;11.27;57.36;101476.66;6154861;23;45318;-66
2023/10/16 10:45:36;;;;;;;;;3.25;3.25;;;;;11.36;57.03;101486.28;6183511;23;46425;-66
2023/10/16 10:48:11;;;;;;;;;5.25;4.00;;;;;11.40;57.25;101482.59;6156569;23;45437;-66
2023/10/16 10:50:38;;;;;;;;;4.00;3.00;;;;;11.40;57.04;101471.03;6182462;23;45428;-66
2023/10/16 10:53:14;;;;;;;;;2.00;2.00;;;;;11.41;57.44;101460.31;6179761;23;45340;-66
2023/10/16 10:55:58;;;;;;;;;3.00;3.00;;;;;11.59;57.04;101484.81;6182841;23;45955;-66
2023/10/16 10:58:31;;;;;;;;;4.50;3.25;;;;;11.67;56.73;101489.06;6183380;23;45563;-66
2023/10/16 11:01:16;;;;;;;;;2.00;2.00;;;;;11.70;57.06;101498.81;6182374;23;45342;-66
2023/10/16 11:03:45;;;;;;;;;4.00;4.00;;;;;11.70;56.50;101480.09;6181349;23;45366;-66
2023/10/16 11:06:16;;;;;;;;;2.50;2.50;;;;;11.80;56.53;101491.44;6206107;22;47467;-71
2023/10/16 11:08:45;;;;;;;;;3.00;2.00;;;;;11.67;56.92;101448.94;6181244;23;45641;-66
2023/10/16 11:11:10;;;;;;;;;2.75;2.75;;;;;11.87;56.48;101482.31;6154000;23;45344;-66
2023/10/16 11:13:47;;;;;;;;;4.50;3.00;;;;;11.85;55.85;101455.63;6182696;23;45282;-66
2023/10/16 11:16:14;;;;;;;;;3.00;3.00;;;;;11.93;56.30;101452.78;6183331;23;45353;-66
2023/10/16 11:18:43;;;;;;;;;3.50;2.25;;;;;11.97;55.95;101445.53;6156526;23;45696;-66
2023/10/16 11:21:09;;;;;;;;;2.50;2.25;;;;;12.07;55.52;101452.41;6206912;22;45451;-66
2023/10/16 11:23:40;;;;;;;;;3.00;3.00;;;;;12.09;55.41;101442.53;6182200;23;45452;-66
2023/10/16 11:26:06;;;;;;;;;3.00;3.00;;;;;12.11;55.56;101419.28;6179117;23;47292;-64
2023/10/16 11:28:32;;;;;;;;;2.50;2.50;;;;;12.10;55.60;101417.53;6180731;23;45386;-63
2023/10/16 11:30:59;;;;;;;;;2.75;2.75;;;;;12.16;55.06;101403.09;6182287;23;45343;-63
2023/10/16 11:34:00;;;;;;;;;3.50;3.00;;;;;12.36;55.17;101431.97;6155518;23;45630;-64
2023/10/16 11:36:27;;;;;;;;;3.25;3.25;;;;;12.40;55.40;101418.44;6205478;22;47512;-63
2023/10/16 11:38:57;;;;;;;;;2.25;2.25;;;;;12.39;55.04;101395.25;6182503;23;45412;-64
2023/10/16 11:41:24;;;;;;;;;2.00;2.00;;;;;12.50;54.17;101397.63;6182036;23;45447;-64
2023/10/16 11:43:54;;;;;;;;;3.50;2.00;;;;;12.60;54.44;101399.09;6182647;23;45666;-64
2023/10/16 11:46:28;;;;;;;;;2.00;2.00;;;;;12.63;54.27;101386.53;6182484;23;45605;-63
2023/10/16 11:49:22;;;;;;;;;2.25;2.25;;;;;12.70;54.30;101380.09;6182465;23;45411;-64
2023/10/16 11:51:49;;;;;;;;;2.25;2.25;;;;;12.75;53.78;101362.94;6184434;23;45495;-63
2023/10/16 11:54:23;;;;;;;;;2.00;2.00;;;;;12.89;53.34;101383.06;6182040;23;45649;-63
2023/10/16 11:56:55;;;;;;;;;3.25;1.00;;;;;12.86;53.61;101359.03;6150118;23;46616;-63
2023/10/16 11:59:22;;;;;;;;;4.00;4.00;;;;;12.98;52.88;101374.75;6177932;23;45359;-63
2023/10/16 12:01:52;;;;;;;;;4.75;2.75;;;;;13.04;53.07;101373.66;6177281;23;45523;-63
2023/10/16 12:04:19;;;;;;;;;1.00;1.00;;;;;12.94;53.11;101341.78;6176973;23;45372;-62
2023/10/16 12:06:45;;;;;;;;;2.25;1.75;;;;;13.00;52.56;101343.41;6179748;23;47202;-63
2023/10/16 12:09:13;;;;;;;;;2.50;2.50;;;;;13.09;52.25;101352.94;6180188;23;45397;-63
2023/10/16 12:11:44;;;;;;;;;2.75;2.75;;;;;13.04;51.42;101331.63;6179720;23;45685;-62
2023/10/16 12:14:13;;;;;;;;;1.50;1.50;;;;;13.19;50.94;101338.28;6152665;23;45414;-62
2023/10/16 12:16:45;;;;;;;;;4.00;1.00;;;;;13.13;50.95;101327.75;6179802;23;45471;-64
2023/10/16 12:19:11;;;;;;;;;0.75;0.00;;;;;13.26;50.59;101326.41;6178662;23;45670;-64
2023/10/16 12:21:37;;;;;;;;;1.00;1.00;;;;;13.26;49.74;101313.00;6174736;23;45800;-63
2023/10/16 12:24:04;;;;;;;;;2.00;2.00;;;;;13.25;50.10;101305.91;6179051;23;45623;-63
2023/10/16 12:26:30;;;;;;;;;2.00;1.00;;;;;13.40;50.34;101322.41;6180156;23;46291;-63
2023/10/16 12:28:56;;;;;;;;;2.00;2.00;;;;;13.38;50.11;101308.19;6179796;23;45680;-63
2023/10/16 12:31:22;;;;;;;;;0.25;0.25;;;;;13.45;49.12;101305.25;6179878;23;45625;-63
2023/10/16 12:33:47;;;;;;;;;1.00;1.00;;;;;13.47;49.08;101310.56;6179043;23;51737;-63
2023/10/16 12:36:13;;;;;;;;;2.75;1.00;;;;;13.55;48.99;101313.84;6180083;23;45623;-63
2023/10/16 12:38:39;;;;;;;;;1.00;1.00;;;;;13.70;49.04;101326.72;6153956;23;45503;-64
2023/10/16 12:41:08;;;;;;;;;0.00;0.00;;;;;13.70;48.56;101305.25;6155453;23;46957;-64
2023/10/16 12:43:33;;;;;;;;;0.00;0.00;;;;;13.60;48.03;101278.78;6156795;23;45814;-64
2023/10/16 12:45:59;;;;;;;;;1.00;1.00;;;;;13.71;48.02;101293.59;6183945;23;45956;-64
2023/10/16 12:48:29;;;;;;;;;1.25;1.00;;;;;13.70;47.77;101280.25;6183462;23;45586;-64
2023/10/16 12:50:59;;;;;;;;;1.50;1.50;;;;;13.77;47.92;101284.44;6183412;23;45416;-64
2023/10/16 12:53:31;;;;;;;;;1.50;1.00;;;;;13.80;47.50;101283.44;6183841;23;45416;-64
2023/10/16 12:55:58;;;;;;;;;1.00;1.00;;;;;13.84;47.42;101277.91;6183800;23;45440;-64
2023/10/16 12:58:24;;;;;;;;;0.75;0.75;;;;;13.78;47.17;101267.41;6180668;23;45666;-64
2023/10/16 13:00:52;;;;;;;;;2.00;1.00;;;;;13.93;46.40;101283.84;6156470;23;45395;-64
2023/10/16 13:03:20;;;;;;;;;0.50;0.50;;;;;13.90;46.97;101280.34;6156794;23;45589;-64
2023/10/16 13:05:48;;;;;;;;;1.00;1.00;;;;;13.94;46.79;101258.78;6181556;23;47464;-64
2023/10/16 13:08:16;;;;;;;;;1.00;0.00;;;;;13.95;46.75;101253.34;6182476;23;45487;-64
2023/10/16 13:10:43;;;;;;;;;0.00;0.00;;;;;14.00;46.18;101255.84;6182972;23;45343;-64
2023/10/16 13:13:09;;;;;;;;;0.00;0.00;;;;;14.07;46.40;101263.59;6156679;23;45598;-64
2023/10/16 13:15:35;;;;;;;;;0.00;0.00;;;;;14.06;46.37;101272.59;6182123;23;45959;-64
2023/10/16 13:18:01;;;;;;;;;0.00;0.00;;;;;14.04;46.77;101261.03;6183303;23;45604;-64
2023/10/16 13:20:27;;;;;;;;;1.00;1.00;;;;;14.03;46.07;101248.56;6183673;23;45344;-64
2023/10/16 13:22:54;;;;;;;;;0.00;0.00;;;;;14.09;46.02;101244.75;6184128;23;45321;-64